createdAt,value
2023-05-06T00:01:20.972Z,62.51
2023-05-06T00:03:51.262Z,62.33
2023-05-06T00:06:18.897Z,62.36
2023-05-06T00:08:46.885Z,62.64
2023-05-06T00:11:14.217Z,62.75
2023-05-06T00:13:42.307Z,63.08
2023-05-06T00:16:09.735Z,62.62
2023-05-06T00:18:37.612Z,63.08
2023-05-06T00:21:06.912Z,63.05
2023-05-06T00:23:34.684Z,62.48
2023-05-06T00:26:02.224Z,62.50
2023-05-06T00:28:29.846Z,62.76
2023-05-06T00:30:57.403Z,62.77
2023-05-06T00:33:26.027Z,62.47
2023-05-06T00:35:53.414Z,62.96
2023-05-06T00:38:22.689Z,63.00
2023-05-06T00:40:50.236Z,62.74
2023-05-06T00:43:17.942Z,62.72
2023-05-06T00:45:45.611Z,62.61
2023-05-06T00:48:16.035Z,62.30
2023-05-06T00:50:44.975Z,62.19
2023-05-06T00:53:12.771Z,62.35
2023-05-06T00:55:41.997Z,62.59
2023-05-06T00:58:10.076Z,62.26
2023-05-06T01:00:37.508Z,62.49
2023-05-06T01:03:05.475Z,62.58
2023-05-06T01:05:40.341Z,62.43
2023-05-06T01:08:17.470Z,62.58
2023-05-06T01:10:52.636Z,62.47
2023-05-06T01:13:28.868Z,62.21
2023-05-06T01:15:59.533Z,62.58
2023-05-06T01:18:31.598Z,62.04
2023-05-06T01:20:59.871Z,62.61
2023-05-06T01:23:29.459Z,62.54
2023-05-06T01:25:56.813Z,62.89
2023-05-06T01:28:24.628Z,62.83
2023-05-06T01:30:58.058Z,63.04
2023-05-06T01:33:42.502Z,63.15
2023-05-06T01:36:13.626Z,63.31
2023-05-06T01:38:51.781Z,63.30
2023-05-06T01:41:20.858Z,63.20
2023-05-06T01:43:49.796Z,63.63
2023-05-06T01:46:19.859Z,63.86
2023-05-06T01:48:50.144Z,63.73
2023-05-06T01:51:17.502Z,63.79
2023-05-06T01:53:46.838Z,64.08
2023-05-06T01:56:14.386Z,63.85
2023-05-06T01:58:42.092Z,63.90
2023-05-06T02:01:09.337Z,63.87
2023-05-06T02:03:37.231Z,63.91
2023-05-06T02:06:05.233Z,64.50
2023-05-06T02:08:32.958Z,64.62
2023-05-06T02:11:01.868Z,64.88
2023-05-06T02:13:29.472Z,64.61
2023-05-06T02:15:56.959Z,64.71
2023-05-06T02:18:24.770Z,64.45
2023-05-06T02:20:52.105Z,64.35
2023-05-06T02:23:19.932Z,64.47
2023-05-06T02:25:47.306Z,63.95
2023-05-06T02:28:16.417Z,64.14
2023-05-06T02:30:43.999Z,63.62
2023-05-06T02:33:11.896Z,63.62
2023-05-06T02:35:39.623Z,63.38
2023-05-06T02:38:07.420Z,63.16
2023-05-06T02:40:34.776Z,62.79
2023-05-06T02:43:02.850Z,62.38
2023-05-06T02:45:31.881Z,61.98
2023-05-06T02:47:59.719Z,62.73
2023-05-06T02:50:27.416Z,62.89
2023-05-06T02:52:55.180Z,62.83
2023-05-06T02:55:22.657Z,63.62
2023-05-06T02:57:50.340Z,63.58
2023-05-06T03:00:18.534Z,63.61
2023-05-06T03:02:47.967Z,62.93
2023-05-06T03:05:15.507Z,62.97
2023-05-06T03:07:43.317Z,63.44
2023-05-06T03:10:11.082Z,63.17
2023-05-06T03:12:39.313Z,62.80
2023-05-06T03:15:07.648Z,63.18
2023-05-06T03:17:35.472Z,63.27
2023-05-06T03:20:05.326Z,64.58
2023-05-06T03:22:32.971Z,64.17
2023-05-06T03:25:00.426Z,64.32
2023-05-06T03:27:28.297Z,65.14
2023-05-06T03:29:55.684Z,65.16
2023-05-06T03:32:23.808Z,65.20
2023-05-06T03:34:51.156Z,65.30
2023-05-06T03:37:20.560Z,65.46
2023-05-06T03:39:47.946Z,65.31
2023-05-06T03:42:15.792Z,65.05
2023-05-06T03:44:43.299Z,64.96
2023-05-06T03:47:11.320Z,63.73
2023-05-06T03:49:38.696Z,63.84
2023-05-06T03:52:06.748Z,63.93
2023-05-06T03:54:35.693Z,63.34
2023-05-06T03:57:03.568Z,63.67
2023-05-06T03:59:30.996Z,63.53
2023-05-06T04:01:58.861Z,65.43
2023-05-06T04:04:26.258Z,66.32
2023-05-06T04:06:54.457Z,67.21
2023-05-06T04:09:21.973Z,68.66
2023-05-06T04:11:51.327Z,69.69
2023-05-06T04:14:18.733Z,71.03
2023-05-06T04:16:46.466Z,71.26
2023-05-06T04:19:14.300Z,70.65
2023-05-06T04:21:41.956Z,70.62
2023-05-06T04:24:09.394Z,71.20
2023-05-06T04:26:37.176Z,70.88
2023-05-06T04:29:06.174Z,71.10
2023-05-06T04:31:34.281Z,71.41
2023-05-06T04:34:01.684Z,71.40
2023-05-06T04:36:29.503Z,71.41
2023-05-06T04:38:57.008Z,71.56
2023-05-06T04:41:24.941Z,71.09
2023-05-06T04:43:52.384Z,71.04
2023-05-06T04:46:21.656Z,70.74
2023-05-06T04:48:49.428Z,68.07
2023-05-06T04:51:17.259Z,69.14
2023-05-06T04:53:44.699Z,68.22
2023-05-06T04:56:12.580Z,68.03
2023-05-06T04:58:39.821Z,69.42
2023-05-06T05:01:09.303Z,70.50
2023-05-06T05:03:38.235Z,70.24
2023-05-06T05:06:06.691Z,70.17
2023-05-06T05:08:34.171Z,70.13
2023-05-06T05:11:01.826Z,69.34
2023-05-06T05:13:29.219Z,68.94
2023-05-06T05:15:57.178Z,68.20
2023-05-06T05:18:24.592Z,68.27
2023-05-06T05:20:53.849Z,68.00
2023-05-06T05:23:21.293Z,68.47
2023-05-06T05:25:48.981Z,68.56
2023-05-06T05:28:16.414Z,70.23
2023-05-06T05:30:44.072Z,70.35
2023-05-06T05:33:11.668Z,70.96
2023-05-06T05:35:40.157Z,71.57
2023-05-06T05:38:09.236Z,72.50
2023-05-06T05:40:37.474Z,71.80
2023-05-06T05:43:04.668Z,72.88
2023-05-06T05:45:33.065Z,72.30
2023-05-06T05:48:00.642Z,71.97
2023-05-06T05:50:28.650Z,72.40
2023-05-06T05:52:56.178Z,72.90
2023-05-06T05:55:25.251Z,72.28
2023-05-06T05:57:52.659Z,72.07
2023-05-06T06:00:21.243Z,73.02
2023-05-06T06:02:48.527Z,73.49
2023-05-06T06:05:16.545Z,75.04
2023-05-06T06:07:44.098Z,75.78
2023-05-06T06:10:11.901Z,76.07
2023-05-06T06:12:42.238Z,77.18
2023-05-06T06:15:11.335Z,78.25
2023-05-06T06:17:38.996Z,78.45
2023-05-06T06:20:08.128Z,78.12
2023-05-06T06:22:35.459Z,78.67
2023-05-06T06:25:03.839Z,80.01
2023-05-06T06:27:34.994Z,80.61
2023-05-06T06:30:05.169Z,79.79
2023-05-06T06:32:32.702Z,79.84
2023-05-06T06:35:00.592Z,80.23
2023-05-06T06:37:27.966Z,80.58
2023-05-06T06:39:56.243Z,81.47
2023-05-06T06:42:23.784Z,82.48
2023-05-06T06:44:52.042Z,83.02
2023-05-06T06:47:21.144Z,83.03
2023-05-06T06:49:48.982Z,83.17
2023-05-06T06:52:16.813Z,83.91
2023-05-06T06:54:44.657Z,84.88
2023-05-06T06:57:12.283Z,84.61
2023-05-06T06:59:40.047Z,85.35
2023-05-06T07:02:07.551Z,85.17
2023-05-06T07:04:37.262Z,85.41
2023-05-06T07:07:04.899Z,85.81
2023-05-06T07:09:35.051Z,86.34
2023-05-06T07:12:03.573Z,86.90
2023-05-06T07:14:31.777Z,87.18
2023-05-06T07:16:59.217Z,87.67
2023-05-06T07:19:27.082Z,88.04
2023-05-06T07:21:56.025Z,87.92
2023-05-06T07:24:24.462Z,87.60
2023-05-06T07:26:51.781Z,87.94
2023-05-06T07:29:19.679Z,88.21
2023-05-06T07:31:47.077Z,87.67
2023-05-06T07:34:14.997Z,87.21
2023-05-06T07:36:42.438Z,85.54
2023-05-06T07:39:12.357Z,84.37
2023-05-06T07:41:39.945Z,83.50
2023-05-06T07:44:07.946Z,82.84
2023-05-06T07:46:35.427Z,81.58
2023-05-06T07:49:03.352Z,81.88
2023-05-06T07:51:30.686Z,81.30
2023-05-06T07:53:59.016Z,81.15
2023-05-06T07:56:28.018Z,79.79
2023-05-06T07:58:55.934Z,79.63
2023-05-06T08:01:23.356Z,80.48
2023-05-06T08:03:51.304Z,79.88
2023-05-06T08:06:18.702Z,78.16
2023-05-06T08:08:46.572Z,79.54
2023-05-06T08:11:14.012Z,79.43
2023-05-06T08:13:43.278Z,82.78
2023-05-06T08:16:10.898Z,83.74
2023-05-06T08:18:38.814Z,84.87
2023-05-06T08:21:06.257Z,84.14
2023-05-06T08:23:33.985Z,84.60
2023-05-06T08:26:01.389Z,86.17
2023-05-06T08:28:29.215Z,87.12
2023-05-06T08:30:57.824Z,87.94
2023-05-06T08:33:25.705Z,89.08
2023-05-06T08:35:53.072Z,90.54
2023-05-06T08:38:20.775Z,91.21
2023-05-06T08:40:49.530Z,91.40
2023-05-06T08:43:20.480Z,90.54
2023-05-06T08:45:50.450Z,88.79
2023-05-06T08:48:19.936Z,88.40
2023-05-06T08:50:49.493Z,86.31
2023-05-06T08:53:17.435Z,85.35
2023-05-06T08:55:46.784Z,84.11
2023-05-06T08:58:16.421Z,83.06
2023-05-06T09:00:45.971Z,82.72
2023-05-06T09:03:13.652Z,81.82
2023-05-06T09:05:43.532Z,81.21
2023-05-06T09:08:11.056Z,81.74
2023-05-06T09:10:43.689Z,82.33
2023-05-06T09:13:13.201Z,83.62
2023-05-06T09:15:41.996Z,83.67
2023-05-06T09:18:09.725Z,83.91
2023-05-06T09:20:41.343Z,83.76
2023-05-06T09:23:11.888Z,85.19
2023-05-06T09:25:39.848Z,85.17
2023-05-06T09:28:08.697Z,86.36
2023-05-06T09:30:39.359Z,87.27
2023-05-06T09:33:06.970Z,88.90
2023-05-06T09:35:38.326Z,89.90
2023-05-06T09:38:07.162Z,90.12
2023-05-06T09:40:38.461Z,89.19
2023-05-06T09:43:06.300Z,89.10
2023-05-06T09:45:34.239Z,87.28
2023-05-06T09:48:02.080Z,89.10
2023-05-06T09:50:30.261Z,88.49
2023-05-06T09:53:00.591Z,89.22
2023-05-06T09:55:29.174Z,87.72
2023-05-06T09:58:01.885Z,87.30
2023-05-06T10:00:31.661Z,86.89
2023-05-06T10:02:59.867Z,86.21
2023-05-06T10:05:30.629Z,83.10
2023-05-06T10:07:59.513Z,86.45
2023-05-06T10:10:28.606Z,84.83
2023-05-06T10:12:57.465Z,85.94
2023-05-06T10:15:26.774Z,85.67
2023-05-06T10:17:55.486Z,85.76
2023-05-06T10:20:26.613Z,84.13
2023-05-06T10:23:03.667Z,85.03
2023-05-06T10:25:36.240Z,85.20
2023-05-06T10:28:07.609Z,84.37
2023-05-06T10:30:40.532Z,85.46
2023-05-06T10:33:09.610Z,83.85
2023-05-06T10:35:46.374Z,86.98
2023-05-06T10:38:20.450Z,85.89
2023-05-06T10:40:48.945Z,83.73
2023-05-06T10:43:32.621Z,84.40
2023-05-06T10:46:02.277Z,85.93
2023-05-06T10:48:30.469Z,84.85
2023-05-06T10:51:26.228Z,84.43
2023-05-06T10:54:01.386Z,83.04
2023-05-06T10:56:30.672Z,82.66
2023-05-06T10:59:02.685Z,84.47
2023-05-06T11:01:30.684Z,83.73
2023-05-06T11:03:58.233Z,84.26
2023-05-06T11:06:33.728Z,85.73
2023-05-06T11:09:01.341Z,85.90
2023-05-06T11:11:48.063Z,85.78
2023-05-06T11:14:26.363Z,84.80
2023-05-06T11:16:54.375Z,84.99
2023-05-06T11:19:23.854Z,83.62
2023-05-06T11:21:52.776Z,84.30
2023-05-06T11:24:27.409Z,83.04
2023-05-06T11:26:57.017Z,83.24
2023-05-06T11:29:26.509Z,83.49
2023-05-06T11:31:54.816Z,82.26
2023-05-06T11:34:27.162Z,82.89
2023-05-06T11:37:00.213Z,83.23
2023-05-06T11:39:28.054Z,80.79
2023-05-06T11:41:55.944Z,81.25
2023-05-06T11:44:29.889Z,81.74
2023-05-06T11:46:59.720Z,80.92
2023-05-06T11:49:27.225Z,83.22
2023-05-06T11:51:56.229Z,81.47
2023-05-06T11:54:26.542Z,81.99
2023-05-06T11:56:56.087Z,81.99
2023-05-06T11:59:30.992Z,81.73
2023-05-06T12:02:00.963Z,80.99
2023-05-06T12:04:36.429Z,81.13
2023-05-06T12:07:05.507Z,80.59
2023-05-06T12:09:33.782Z,81.76
2023-05-06T12:12:02.966Z,80.96
2023-05-06T12:14:32.241Z,81.12
2023-05-06T12:17:00.330Z,80.26
2023-05-06T12:19:29.084Z,81.17
2023-05-06T12:22:13.717Z,80.82
2023-05-06T12:24:41.424Z,82.15
2023-05-06T12:27:09.356Z,82.27
2023-05-06T12:29:38.165Z,82.12
2023-05-06T12:32:10.668Z,82.96
2023-05-06T12:34:39.130Z,81.86
2023-05-06T12:37:07.865Z,81.92
2023-05-06T12:39:36.108Z,81.77
2023-05-06T12:42:04.222Z,81.12
2023-05-06T12:44:38.023Z,81.33
2023-05-06T12:47:06.977Z,81.24
2023-05-06T12:49:51.181Z,83.39
2023-05-06T12:52:20.872Z,83.81
2023-05-06T12:54:50.114Z,83.23
2023-05-06T12:57:17.867Z,81.75
2023-05-06T12:59:47.242Z,83.17
2023-05-06T13:02:15.718Z,82.42
2023-05-06T13:04:43.474Z,84.19
2023-05-06T13:07:12.493Z,83.39
2023-05-06T13:09:39.823Z,84.57
2023-05-06T13:12:07.958Z,83.43
2023-05-06T13:14:37.660Z,83.03
2023-05-06T13:17:08.914Z,81.92
2023-05-06T13:19:36.756Z,81.69
2023-05-06T13:22:04.656Z,82.12
2023-05-06T13:24:32.019Z,80.98
2023-05-06T13:26:59.860Z,81.33
2023-05-06T13:29:27.420Z,80.26
2023-05-06T13:31:55.444Z,80.08
2023-05-06T13:34:24.421Z,78.13
2023-05-06T13:36:54.157Z,78.41
2023-05-06T13:39:21.671Z,79.74
2023-05-06T13:41:50.195Z,79.23
2023-05-06T13:44:17.901Z,81.41
2023-05-06T13:46:46.508Z,79.38
2023-05-06T13:49:14.954Z,78.49
2023-05-06T13:51:44.799Z,78.14
2023-05-06T13:54:12.147Z,79.00
2023-05-06T13:56:40.206Z,79.74
2023-05-06T13:59:07.932Z,77.51
2023-05-06T14:01:36.423Z,78.19
2023-05-06T14:04:04.098Z,76.45
2023-05-06T14:06:31.911Z,75.04
2023-05-06T14:09:00.751Z,76.55
2023-05-06T14:11:28.658Z,75.39
2023-05-06T14:13:56.270Z,75.42
2023-05-06T14:16:24.119Z,71.75
2023-05-06T14:18:51.762Z,73.01
2023-05-06T14:21:19.700Z,73.82
2023-05-06T14:23:47.166Z,72.93
2023-05-06T14:26:16.617Z,74.66
2023-05-06T14:28:44.057Z,75.17
2023-05-06T14:31:11.882Z,74.88
2023-05-06T14:33:39.424Z,74.60
2023-05-06T14:36:07.660Z,73.69
2023-05-06T14:38:35.024Z,73.92
2023-05-06T14:41:03.050Z,73.80
2023-05-06T14:43:32.022Z,74.09
2023-05-06T14:45:59.859Z,73.72
2023-05-06T14:48:27.420Z,74.76
2023-05-06T14:50:55.531Z,74.21
2023-05-06T14:53:22.834Z,74.02
2023-05-06T14:55:51.025Z,73.33
2023-05-06T14:58:18.390Z,75.00
2023-05-06T15:00:47.741Z,75.28
2023-05-06T15:03:15.400Z,75.86
2023-05-06T15:05:43.407Z,75.71
2023-05-06T15:08:11.032Z,76.92
2023-05-06T15:10:38.904Z,76.50
2023-05-06T15:13:06.418Z,76.18
2023-05-06T15:15:34.181Z,76.52
2023-05-06T15:18:03.225Z,77.74
2023-05-06T15:20:31.022Z,77.18
2023-05-06T15:22:58.516Z,77.38
2023-05-06T15:25:34.856Z,77.06
2023-05-06T15:28:04.290Z,78.36
2023-05-06T15:30:32.117Z,77.83
2023-05-06T15:33:01.331Z,77.93
2023-05-06T15:35:31.051Z,78.75
2023-05-06T15:37:58.490Z,79.08
2023-05-06T15:40:26.749Z,78.65
2023-05-06T15:42:54.540Z,78.29
2023-05-06T15:45:22.474Z,78.19
2023-05-06T15:47:49.871Z,78.37
2023-05-06T15:50:31.844Z,80.18
2023-05-06T15:53:02.594Z,80.14
2023-05-06T15:55:35.038Z,80.46
2023-05-06T15:58:08.822Z,80.64
2023-05-06T16:00:36.770Z,80.27
2023-05-06T16:03:04.542Z,79.18
2023-05-06T16:05:32.526Z,80.07
2023-05-06T16:08:01.484Z,80.23
2023-05-06T16:10:29.983Z,80.79
2023-05-06T16:12:57.527Z,81.18
2023-05-06T16:15:25.822Z,80.69
2023-05-06T16:17:53.279Z,82.19
2023-05-06T16:20:21.298Z,81.31
2023-05-06T16:22:50.633Z,81.93
2023-05-06T16:25:20.395Z,81.62
2023-05-06T16:27:47.838Z,81.67
2023-05-06T16:30:15.973Z,81.61
2023-05-06T16:32:43.632Z,81.05
2023-05-06T16:35:11.501Z,80.92
2023-05-06T16:37:39.098Z,81.18
2023-05-06T16:40:08.695Z,81.46
2023-05-06T16:42:37.994Z,81.25
2023-05-06T16:45:07.575Z,81.48
2023-05-06T16:47:35.463Z,80.08
2023-05-06T16:50:04.633Z,80.37
2023-05-06T16:52:32.050Z,80.48
2023-05-06T16:55:00.035Z,80.98
2023-05-06T16:57:27.578Z,80.88
2023-05-06T16:59:57.202Z,81.19
2023-05-06T17:02:24.758Z,80.91
2023-05-06T17:04:52.834Z,81.60
2023-05-06T17:07:20.330Z,82.25
2023-05-06T17:09:48.060Z,82.46
2023-05-06T17:12:15.549Z,82.31
2023-05-06T17:14:43.497Z,82.93
2023-05-06T17:17:12.330Z,83.20
2023-05-06T17:19:40.139Z,82.64
2023-05-06T17:22:09.485Z,82.60
2023-05-06T17:24:37.611Z,81.43
2023-05-06T17:27:05.049Z,81.41
2023-05-06T17:29:33.341Z,81.11
2023-05-06T17:32:01.030Z,81.25
2023-05-06T17:34:31.241Z,82.26
2023-05-06T17:37:00.155Z,81.58
2023-05-06T17:39:28.151Z,81.63
2023-05-06T17:41:55.634Z,80.89
2023-05-06T17:44:23.504Z,80.29
2023-05-06T17:46:50.980Z,80.08
2023-05-06T17:49:18.786Z,80.47
2023-05-06T17:51:47.653Z,81.05
2023-05-06T17:54:15.468Z,82.30
2023-05-06T17:56:42.813Z,82.60
2023-05-06T17:59:10.675Z,82.31
2023-05-06T18:01:38.499Z,82.21
2023-05-06T18:04:06.690Z,82.34
2023-05-06T18:06:34.289Z,82.89
2023-05-06T18:09:03.919Z,81.70
2023-05-06T18:11:31.477Z,81.59
2023-05-06T18:13:59.709Z,82.06
2023-05-06T18:16:27.198Z,81.18
2023-05-06T18:18:55.261Z,80.81
2023-05-06T18:21:32.815Z,80.98
2023-05-06T18:24:15.251Z,80.71
2023-05-06T18:26:45.769Z,80.11
2023-05-06T18:29:14.268Z,80.55
2023-05-06T18:31:41.882Z,81.02
2023-05-06T18:34:09.882Z,81.67
2023-05-06T18:36:37.534Z,82.34
2023-05-06T18:39:07.065Z,82.39
2023-05-06T18:41:34.366Z,82.83
2023-05-06T18:44:02.742Z,82.09
2023-05-06T18:46:30.241Z,82.41
2023-05-06T18:48:58.659Z,82.31
2023-05-06T18:51:26.165Z,82.82
2023-05-06T18:53:54.177Z,82.25
2023-05-06T18:56:23.198Z,82.28
2023-05-06T18:58:51.593Z,82.41
2023-05-06T19:01:19.280Z,82.97
2023-05-06T19:03:47.232Z,82.57
2023-05-06T19:06:14.731Z,82.66
2023-05-06T19:08:42.717Z,81.68
2023-05-06T19:11:15.196Z,81.99
2023-05-06T19:13:45.099Z,82.38
2023-05-06T19:16:13.033Z,82.68
2023-05-06T19:18:41.486Z,83.03
2023-05-06T19:21:09.704Z,83.12
2023-05-06T19:23:37.867Z,83.26
2023-05-06T19:26:06.610Z,83.66
2023-05-06T19:28:34.579Z,83.04
2023-05-06T19:31:06.960Z,83.46
2023-05-06T19:33:35.642Z,82.81
2023-05-06T19:36:03.689Z,82.82
2023-05-06T19:38:32.113Z,84.13
2023-05-06T19:40:59.640Z,84.49
2023-05-06T19:43:27.292Z,83.51
2023-05-06T19:45:55.024Z,83.89
2023-05-06T19:48:24.666Z,84.67
2023-05-06T19:50:52.210Z,84.26
2023-05-06T19:53:21.722Z,84.44
2023-05-06T19:55:53.883Z,83.57
2023-05-06T19:58:24.868Z,83.37
2023-05-06T20:01:01.333Z,84.03
2023-05-06T20:03:36.364Z,84.96
2023-05-06T20:06:04.774Z,84.26
2023-05-06T20:08:32.752Z,83.97
2023-05-06T20:11:00.520Z,84.28
2023-05-06T20:13:28.745Z,84.50
2023-05-06T20:15:56.367Z,84.95
2023-05-06T20:18:24.483Z,84.51
2023-05-06T20:20:53.555Z,83.63
2023-05-06T20:23:21.484Z,83.49
2023-05-06T20:25:49.423Z,83.95
2023-05-06T20:28:17.491Z,83.45
2023-05-06T20:30:45.144Z,83.38
2023-05-06T20:33:13.258Z,82.94
2023-05-06T20:35:40.641Z,83.67
2023-05-06T20:38:10.367Z,83.80
2023-05-06T20:40:38.228Z,83.50
2023-05-06T20:43:06.168Z,83.15
2023-05-06T20:45:33.861Z,82.84
2023-05-06T20:48:02.386Z,82.71
2023-05-06T20:50:30.293Z,83.32
2023-05-06T20:52:59.723Z,82.61
2023-05-06T20:55:28.783Z,81.79
2023-05-06T20:57:57.001Z,82.67
2023-05-06T21:00:25.168Z,81.89
2023-05-06T21:02:53.383Z,82.15
2023-05-06T21:05:22.615Z,83.45
2023-05-06T21:07:50.575Z,83.73
2023-05-06T21:10:17.887Z,84.09
2023-05-06T21:12:51.065Z,84.19
2023-05-06T21:15:18.679Z,84.41
2023-05-06T21:17:46.577Z,84.81
2023-05-06T21:20:14.112Z,84.99
2023-05-06T21:22:41.861Z,84.54
2023-05-06T21:25:14.720Z,83.98
2023-05-06T21:27:42.819Z,83.63
2023-05-06T21:30:12.984Z,83.92
2023-05-06T21:32:41.076Z,84.12
2023-05-06T21:35:09.264Z,85.04
2023-05-06T21:37:37.131Z,84.91
2023-05-06T21:40:05.560Z,84.85
2023-05-06T21:42:33.506Z,84.91
2023-05-06T21:45:00.940Z,85.28
2023-05-06T21:47:30.529Z,85.20
2023-05-06T21:49:57.942Z,85.34
2023-05-06T21:52:25.875Z,85.28
2023-05-06T21:54:53.385Z,85.33
2023-05-06T21:57:21.152Z,85.35
2023-05-06T21:59:48.572Z,84.61
2023-05-06T22:02:16.758Z,84.39
2023-05-06T22:04:45.620Z,84.27
2023-05-06T22:07:13.559Z,84.55
2023-05-06T22:09:40.886Z,84.34
2023-05-06T22:12:08.913Z,84.57
2023-05-06T22:14:41.241Z,84.16
2023-05-06T22:17:09.643Z,83.67
2023-05-06T22:19:37.134Z,83.24
2023-05-06T22:22:07.030Z,82.64
2023-05-06T22:24:34.665Z,82.76
2023-05-06T22:27:02.741Z,83.19
2023-05-06T22:29:30.282Z,83.22
2023-05-06T22:31:58.722Z,83.49
2023-05-06T22:34:26.193Z,83.48
2023-05-06T22:36:53.957Z,83.89
2023-05-06T22:39:23.072Z,83.03
2023-05-06T22:41:50.901Z,83.30
2023-05-06T22:44:18.423Z,83.53
2023-05-06T22:46:46.310Z,83.70
2023-05-06T22:49:13.732Z,83.75
2023-05-06T22:51:42.104Z,84.15
2023-05-06T22:54:09.551Z,84.58
2023-05-06T22:56:39.376Z,84.62
2023-05-06T22:59:06.715Z,84.60
2023-05-06T23:01:35.111Z,84.33
2023-05-06T23:04:02.632Z,84.95
2023-05-06T23:06:30.705Z,84.29
2023-05-06T23:08:58.208Z,84.50
2023-05-06T23:11:25.953Z,85.09
2023-05-06T23:13:54.892Z,85.48
2023-05-06T23:16:22.753Z,84.96
2023-05-06T23:18:50.109Z,84.00
2023-05-06T23:21:17.919Z,83.99
2023-05-06T23:23:45.331Z,84.59
2023-05-06T23:26:13.419Z,85.29
2023-05-06T23:28:40.853Z,85.71
2023-05-06T23:31:10.235Z,86.08
2023-05-06T23:33:37.721Z,86.38
2023-05-06T23:36:05.750Z,85.86
2023-05-06T23:38:33.223Z,85.57
2023-05-06T23:41:01.031Z,85.70
2023-05-06T23:43:28.534Z,86.29
2023-05-06T23:45:56.404Z,85.29
2023-05-06T23:48:25.394Z,85.47
2023-05-06T23:50:53.192Z,85.23
2023-05-06T23:53:20.830Z,85.84
2023-05-06T23:55:48.945Z,85.81
2023-05-06T23:58:16.264Z,86.22
